JST820 YSSY-YBBN
Flight info
| Callsign | JST820 |
|---|---|
| Flight time | 1h 10m |
| Altitude | 37000 |
| Route | TESAT H252 OLSEM Y193 BANDA H252 BN |
| Aircraft | A21N/M-SDE3FGHIRWY/LB1 |
Departure
| Time | 2026-04-26 05:32 |
|---|---|
| Airport | Sydney Kingsford Smith International Airport (YSSY) |
Arrival
| Time | 2026-04-26 06:42 |
|---|---|
| Airport | Brisbane International Airport (YBBN) |
| Time | Latitude | Longitude | Altitude | Speed | Heading |
|---|---|---|---|---|---|
| 2026-04-26 04:47 | -33.93526 | 151.17773 | 12 ft | 0 kts | 281° |
| 2026-04-26 05:06 | -33.93528 | 151.17789 | 13 ft | 2 kts | 280° |
| 2026-04-26 05:07 | -33.93531 | 151.17807 | 14 ft | 2 kts | 280° |
| 2026-04-26 05:07 | -33.93533 | 151.17818 | 14 ft | 2 kts | 277° |
| 2026-04-26 05:07 | -33.93528 | 151.17835 | 15 ft | 2 kts | 220° |
| 2026-04-26 05:07 | -33.93520 | 151.17839 | 15 ft | 1 kts | 191° |
| 2026-04-26 05:08 | -33.93530 | 151.17836 | 15 ft | 4 kts | 194° |
| 2026-04-26 05:08 | -33.93560 | 151.17830 | 14 ft | 2 kts | 190° |
| 2026-04-26 05:08 | -33.93563 | 151.17828 | 14 ft | 0 kts | 190° |
| 2026-04-26 05:18 | -33.93571 | 151.17827 | 14 ft | 3 kts | 189° |
| 2026-04-26 05:18 | -33.93631 | 151.17815 | 12 ft | 14 kts | 190° |
| 2026-04-26 05:18 | -33.93734 | 151.17793 | 10 ft | 16 kts | 191° |
| 2026-04-26 05:19 | -33.93850 | 151.17769 | 9 ft | 16 kts | 183° |
| 2026-04-26 05:19 | -33.93960 | 151.17795 | 11 ft | 15 kts | 168° |
| 2026-04-26 05:19 | -33.94065 | 151.17822 | 13 ft | 15 kts | 167° |
| 2026-04-26 05:19 | -33.94170 | 151.17848 | 16 ft | 15 kts | 168° |
| 2026-04-26 05:20 | -33.94270 | 151.17874 | 19 ft | 13 kts | 167° |
| 2026-04-26 05:20 | -33.94356 | 151.17897 | 23 ft | 11 kts | 167° |
| 2026-04-26 05:20 | -33.94429 | 151.17914 | 24 ft | 10 kts | 178° |
| 2026-04-26 05:20 | -33.94495 | 151.17885 | 25 ft | 10 kts | 196° |
| 2026-04-26 05:21 | -33.94572 | 151.17896 | 25 ft | 11 kts | 168° |
| 2026-04-26 05:21 | -33.94665 | 151.17920 | 26 ft | 16 kts | 167° |
| 2026-04-26 05:21 | -33.94778 | 151.17950 | 27 ft | 16 kts | 168° |
| 2026-04-26 05:21 | -33.94893 | 151.17979 | 26 ft | 17 kts | 168° |
| 2026-04-26 05:22 | -33.95015 | 151.18012 | 24 ft | 16 kts | 168° |
| 2026-04-26 05:22 | -33.95091 | 151.18043 | 21 ft | 12 kts | 133° |
| 2026-04-26 05:22 | -33.95095 | 151.18149 | 21 ft | 13 kts | 77° |
| 2026-04-26 05:22 | -33.95075 | 151.18260 | 20 ft | 14 kts | 78° |
| 2026-04-26 05:23 | -33.95059 | 151.18350 | 19 ft | 8 kts | 78° |
| 2026-04-26 05:23 | -33.95051 | 151.18391 | 18 ft | 2 kts | 78° |
| 2026-04-26 05:23 | -33.95051 | 151.18393 | 18 ft | 0 kts | 78° |
| 2026-04-26 05:24 | -33.95051 | 151.18394 | 18 ft | 0 kts | 78° |
| 2026-04-26 05:24 | -33.95047 | 151.18417 | 18 ft | 5 kts | 77° |
| 2026-04-26 05:25 | -33.95054 | 151.18488 | 17 ft | 12 kts | 122° |
| 2026-04-26 05:25 | -33.95127 | 151.18555 | 15 ft | 14 kts | 137° |
| 2026-04-26 05:25 | -33.95202 | 151.18639 | 14 ft | 15 kts | 137° |
| 2026-04-26 05:25 | -33.95295 | 151.18712 | 12 ft | 16 kts | 160° |
| 2026-04-26 05:26 | -33.95411 | 151.18745 | 12 ft | 18 kts | 168° |
| 2026-04-26 05:26 | -33.95536 | 151.18779 | 11 ft | 18 kts | 168° |
| 2026-04-26 05:26 | -33.95667 | 151.18813 | 9 ft | 19 kts | 167° |
| 2026-04-26 05:26 | -33.95799 | 151.18846 | 9 ft | 19 kts | 168° |
| 2026-04-26 05:27 | -33.95928 | 151.18880 | 9 ft | 19 kts | 168° |
| 2026-04-26 05:27 | -33.96057 | 151.18913 | 9 ft | 18 kts | 168° |
| 2026-04-26 05:27 | -33.96186 | 151.18947 | 9 ft | 18 kts | 167° |
| 2026-04-26 05:27 | -33.96314 | 151.18980 | 9 ft | 18 kts | 168° |
| 2026-04-26 05:28 | -33.96437 | 151.19012 | 10 ft | 17 kts | 168° |
| 2026-04-26 05:28 | -33.96556 | 151.19043 | 11 ft | 17 kts | 168° |
| 2026-04-26 05:28 | -33.96671 | 151.19073 | 12 ft | 16 kts | 169° |
| 2026-04-26 05:28 | -33.96785 | 151.19069 | 12 ft | 16 kts | 184° |
| 2026-04-26 05:29 | -33.96899 | 151.19087 | 12 ft | 15 kts | 167° |
| 2026-04-26 05:29 | -33.96996 | 151.19113 | 12 ft | 13 kts | 168° |
| 2026-04-26 05:29 | -33.97062 | 151.19130 | 12 ft | 3 kts | 167° |
| 2026-04-26 05:29 | -33.97093 | 151.19139 | 12 ft | 5 kts | 163° |
| 2026-04-26 05:30 | -33.97126 | 151.19173 | 12 ft | 7 kts | 118° |
| 2026-04-26 05:30 | -33.97127 | 151.19238 | 12 ft | 8 kts | 77° |
| 2026-04-26 05:30 | -33.97111 | 151.19318 | 12 ft | 9 kts | 77° |
| 2026-04-26 05:30 | -33.97098 | 151.19373 | 12 ft | 5 kts | 50° |
| 2026-04-26 05:31 | -33.97054 | 151.19377 | 12 ft | 12 kts | 346° |
| 2026-04-26 05:31 | -33.96715 | 151.19290 | 12 ft | 91 kts | 348° |
| 2026-04-26 05:31 | -33.95847 | 151.19064 | 12 ft | 159 kts | 349° |
| 2026-04-26 05:31 | -33.94693 | 151.18768 | 566 ft | 173 kts | 351° |
| 2026-04-26 05:32 | -33.93539 | 151.18639 | 1467 ft | 167 kts | 13° |
| 2026-04-26 05:32 | -33.92538 | 151.19243 | 2243 ft | 167 kts | 34° |
| 2026-04-26 05:32 | -33.91584 | 151.20102 | 2787 ft | 182 kts | 37° |
| 2026-04-26 05:32 | -33.90544 | 151.21086 | 3323 ft | 199 kts | 37° |
| 2026-04-26 05:33 | -33.89402 | 151.22134 | 3858 ft | 216 kts | 36° |
| 2026-04-26 05:33 | -33.88124 | 151.23276 | 4308 ft | 240 kts | 36° |
| 2026-04-26 05:33 | -33.86727 | 151.24507 | 4907 ft | 259 kts | 36° |
| 2026-04-26 05:33 | -33.85249 | 151.25800 | 5749 ft | 267 kts | 36° |
| 2026-04-26 05:34 | -33.83845 | 151.27202 | 6651 ft | 271 kts | 49° |
| 2026-04-26 05:34 | -33.82875 | 151.29129 | 7565 ft | 275 kts | 69° |
| 2026-04-26 05:34 | -33.82286 | 151.31331 | 8508 ft | 277 kts | 73° |
| 2026-04-26 05:34 | -33.81745 | 151.33531 | 9392 ft | 281 kts | 73° |
| 2026-04-26 05:35 | -33.81189 | 151.35767 | 10245 ft | 285 kts | 72° |
| 2026-04-26 05:35 | -33.80290 | 151.37929 | 10843 ft | 298 kts | 54° |
| 2026-04-26 05:35 | -33.78938 | 151.39925 | 11316 ft | 316 kts | 49° |
| 2026-04-26 05:35 | -33.77470 | 151.41942 | 11860 ft | 330 kts | 49° |
| 2026-04-26 05:36 | -33.75959 | 151.44054 | 12646 ft | 335 kts | 50° |
| 2026-04-26 05:36 | -33.74461 | 151.46201 | 13463 ft | 338 kts | 51° |
| 2026-04-26 05:36 | -33.72975 | 151.48366 | 14278 ft | 341 kts | 51° |
| 2026-04-26 05:36 | -33.71464 | 151.50588 | 15086 ft | 344 kts | 51° |
| 2026-04-26 05:37 | -33.69965 | 151.52802 | 15860 ft | 346 kts | 51° |
| 2026-04-26 05:37 | -33.68456 | 151.55032 | 16607 ft | 350 kts | 52° |
| 2026-04-26 05:37 | -33.66915 | 151.57310 | 17337 ft | 353 kts | 52° |
| 2026-04-26 05:37 | -33.65258 | 151.59518 | 18037 ft | 357 kts | 46° |
| 2026-04-26 05:38 | -33.63408 | 151.61470 | 18721 ft | 361 kts | 39° |
| 2026-04-26 05:38 | -33.61334 | 151.63225 | 19402 ft | 365 kts | 35° |
| 2026-04-26 05:38 | -33.59229 | 151.64880 | 20036 ft | 369 kts | 34° |
| 2026-04-26 05:38 | -33.57059 | 151.66569 | 20673 ft | 372 kts | 34° |
| 2026-04-26 05:39 | -33.54877 | 151.68272 | 21281 ft | 376 kts | 34° |
| 2026-04-26 05:39 | -33.52681 | 151.69989 | 21885 ft | 380 kts | 34° |
| 2026-04-26 05:39 | -33.50402 | 151.71591 | 22476 ft | 384 kts | 28° |
| 2026-04-26 05:39 | -33.47963 | 151.72891 | 23046 ft | 389 kts | 22° |
| 2026-04-26 05:40 | -33.45353 | 151.73889 | 23629 ft | 393 kts | 17° |
| 2026-04-26 05:40 | -33.42726 | 151.74747 | 24174 ft | 396 kts | 16° |
| 2026-04-26 05:40 | -33.40036 | 151.75603 | 24706 ft | 400 kts | 16° |
| 2026-04-26 05:40 | -33.37343 | 151.76462 | 25207 ft | 403 kts | 16° |
| 2026-04-26 05:41 | -33.34629 | 151.77335 | 25695 ft | 407 kts | 16° |
| 2026-04-26 05:41 | -33.31898 | 151.78217 | 26157 ft | 410 kts | 16° |
| 2026-04-26 05:41 | -33.29120 | 151.79112 | 26609 ft | 413 kts | 16° |
| 2026-04-26 05:41 | -33.26316 | 151.80017 | 27054 ft | 417 kts | 16° |
| 2026-04-26 05:42 | -33.23533 | 151.80916 | 27475 ft | 420 kts | 16° |
| 2026-04-26 05:42 | -33.20685 | 151.81834 | 27891 ft | 423 kts | 16° |
| 2026-04-26 05:42 | -33.17833 | 151.82753 | 28298 ft | 426 kts | 16° |
| 2026-04-26 05:42 | -33.14980 | 151.83672 | 28688 ft | 429 kts | 16° |
| 2026-04-26 05:43 | -33.12085 | 151.84604 | 29060 ft | 431 kts | 16° |
| 2026-04-26 05:43 | -33.09174 | 151.85539 | 29429 ft | 434 kts | 16° |
| 2026-04-26 05:43 | -33.06241 | 151.86481 | 29789 ft | 437 kts | 16° |
| 2026-04-26 05:43 | -33.03265 | 151.87436 | 30135 ft | 440 kts | 16° |
| 2026-04-26 05:44 | -33.00347 | 151.88371 | 30452 ft | 442 kts | 16° |
| 2026-04-26 05:44 | -32.97327 | 151.89340 | 30775 ft | 445 kts | 16° |
| 2026-04-26 05:44 | -32.94320 | 151.90303 | 31076 ft | 448 kts | 16° |
| 2026-04-26 05:44 | -32.91317 | 151.91264 | 31364 ft | 450 kts | 16° |
| 2026-04-26 05:45 | -32.88301 | 151.92229 | 31660 ft | 452 kts | 16° |
| 2026-04-26 05:45 | -32.85251 | 151.93204 | 32054 ft | 451 kts | 16° |
| 2026-04-26 05:45 | -32.82207 | 151.94176 | 32482 ft | 450 kts | 16° |
| 2026-04-26 05:45 | -32.79228 | 151.95126 | 32878 ft | 448 kts | 16° |
| 2026-04-26 05:46 | -32.76208 | 151.96089 | 33241 ft | 448 kts | 16° |
| 2026-04-26 05:46 | -32.73186 | 151.97054 | 33577 ft | 447 kts | 16° |
| 2026-04-26 05:46 | -32.70202 | 151.98004 | 33892 ft | 447 kts | 16° |
| 2026-04-26 05:46 | -32.67186 | 151.98964 | 34236 ft | 447 kts | 16° |
| 2026-04-26 05:47 | -32.64164 | 151.99925 | 34589 ft | 446 kts | 16° |
| 2026-04-26 05:47 | -32.61196 | 152.00870 | 34929 ft | 445 kts | 15° |
| 2026-04-26 05:47 | -32.58195 | 152.01823 | 35262 ft | 445 kts | 15° |
| 2026-04-26 05:47 | -32.55231 | 152.02765 | 35555 ft | 445 kts | 15° |
| 2026-04-26 05:48 | -32.52213 | 152.03723 | 35791 ft | 446 kts | 15° |
| 2026-04-26 05:48 | -32.49206 | 152.04677 | 35988 ft | 447 kts | 15° |
| 2026-04-26 05:48 | -32.46224 | 152.05621 | 36196 ft | 448 kts | 15° |
| 2026-04-26 05:48 | -32.43193 | 152.06581 | 36415 ft | 449 kts | 15° |
| 2026-04-26 05:49 | -32.40171 | 152.07536 | 36620 ft | 450 kts | 15° |
| 2026-04-26 05:49 | -32.34106 | 152.09453 | 37005 ft | 452 kts | 15° |
| 2026-04-26 05:49 | -32.31094 | 152.10403 | 37170 ft | 453 kts | 15° |
| 2026-04-26 05:50 | -32.28023 | 152.11372 | 37170 ft | 453 kts | 15° |
| 2026-04-26 05:50 | -32.21922 | 152.13294 | 37179 ft | 454 kts | 15° |
| 2026-04-26 05:51 | -32.15825 | 152.15212 | 37176 ft | 454 kts | 15° |
| 2026-04-26 05:51 | -32.09721 | 152.17129 | 37178 ft | 455 kts | 15° |
| 2026-04-26 05:52 | -32.03581 | 152.19057 | 37182 ft | 456 kts | 15° |
| 2026-04-26 05:52 | -31.97453 | 152.20979 | 37175 ft | 456 kts | 15° |
| 2026-04-26 05:53 | -31.91293 | 152.22906 | 37180 ft | 457 kts | 15° |
| 2026-04-26 05:53 | -31.85142 | 152.24829 | 37186 ft | 457 kts | 15° |
| 2026-04-26 05:54 | -31.79018 | 152.26739 | 37191 ft | 457 kts | 15° |
| 2026-04-26 05:54 | -31.72865 | 152.28657 | 37186 ft | 458 kts | 15° |
| 2026-04-26 05:55 | -31.66672 | 152.30585 | 37185 ft | 459 kts | 15° |
| 2026-04-26 05:55 | -31.60494 | 152.32507 | 37188 ft | 459 kts | 15° |
| 2026-04-26 05:56 | -31.54334 | 152.34418 | 37195 ft | 459 kts | 15° |
| 2026-04-26 05:56 | -31.48177 | 152.36327 | 37193 ft | 459 kts | 15° |
| 2026-04-26 05:57 | -31.41989 | 152.38242 | 37190 ft | 459 kts | 14° |
| 2026-04-26 05:57 | -31.35821 | 152.40149 | 37195 ft | 460 kts | 14° |
| 2026-04-26 05:58 | -31.29624 | 152.42062 | 37193 ft | 461 kts | 14° |
| 2026-04-26 05:58 | -31.23412 | 152.43976 | 37197 ft | 461 kts | 14° |
| 2026-04-26 05:59 | -31.17210 | 152.45886 | 37192 ft | 462 kts | 14° |
| 2026-04-26 05:59 | -31.11000 | 152.47795 | 37191 ft | 462 kts | 14° |
| 2026-04-26 06:00 | -31.04806 | 152.49698 | 37195 ft | 461 kts | 14° |
| 2026-04-26 06:00 | -30.98582 | 152.51607 | 37192 ft | 461 kts | 14° |
| 2026-04-26 06:01 | -30.92397 | 152.53500 | 37189 ft | 462 kts | 14° |
| 2026-04-26 06:01 | -30.86171 | 152.55403 | 37196 ft | 462 kts | 14° |
| 2026-04-26 06:02 | -30.79944 | 152.57324 | 37192 ft | 463 kts | 15° |
| 2026-04-26 06:02 | -30.73785 | 152.59535 | 37189 ft | 464 kts | 17° |
| 2026-04-26 06:03 | -30.67588 | 152.61789 | 37194 ft | 465 kts | 17° |
| 2026-04-26 06:03 | -30.61423 | 152.64027 | 37197 ft | 465 kts | 17° |
| 2026-04-26 06:04 | -30.55247 | 152.66263 | 37196 ft | 465 kts | 16° |
| 2026-04-26 06:04 | -30.49034 | 152.68509 | 37197 ft | 466 kts | 16° |
| 2026-04-26 06:05 | -30.42853 | 152.70740 | 37194 ft | 466 kts | 16° |
| 2026-04-26 06:05 | -30.36681 | 152.72965 | 37204 ft | 466 kts | 16° |
| 2026-04-26 06:06 | -30.30432 | 152.75215 | 37201 ft | 466 kts | 16° |
| 2026-04-26 06:06 | -30.24235 | 152.77443 | 37202 ft | 466 kts | 16° |
| 2026-04-26 06:07 | -30.18019 | 152.79675 | 37200 ft | 466 kts | 16° |
| 2026-04-26 06:07 | -30.11787 | 152.81911 | 37192 ft | 466 kts | 16° |
| 2026-04-26 06:08 | -30.05610 | 152.84123 | 37182 ft | 465 kts | 16° |
| 2026-04-26 06:08 | -29.99420 | 152.86337 | 37173 ft | 466 kts | 16° |
| 2026-04-26 06:09 | -29.93228 | 152.88548 | 37176 ft | 466 kts | 16° |
| 2026-04-26 06:09 | -29.87025 | 152.90762 | 37181 ft | 466 kts | 15° |
| 2026-04-26 06:10 | -29.80826 | 152.92970 | 37187 ft | 466 kts | 15° |
| 2026-04-26 06:10 | -29.74636 | 152.95171 | 37174 ft | 465 kts | 15° |
| 2026-04-26 06:11 | -29.68446 | 152.97371 | 37186 ft | 466 kts | 15° |
| 2026-04-26 06:11 | -29.62288 | 152.99556 | 37179 ft | 466 kts | 15° |
| 2026-04-26 06:12 | -29.56068 | 153.01761 | 37174 ft | 467 kts | 15° |
| 2026-04-26 06:12 | -29.49864 | 153.03957 | 37177 ft | 466 kts | 15° |
| 2026-04-26 06:13 | -29.43658 | 153.06151 | 37169 ft | 466 kts | 15° |
| 2026-04-26 06:13 | -29.37479 | 153.08331 | 37172 ft | 466 kts | 15° |
| 2026-04-26 06:14 | -29.31281 | 153.10518 | 37163 ft | 466 kts | 15° |
| 2026-04-26 06:14 | -29.25043 | 153.12714 | 37165 ft | 466 kts | 15° |
| 2026-04-26 06:15 | -29.18867 | 153.14887 | 37161 ft | 466 kts | 15° |
| 2026-04-26 06:15 | -29.12621 | 153.17082 | 37158 ft | 467 kts | 15° |
| 2026-04-26 06:16 | -29.06414 | 153.19261 | 37160 ft | 467 kts | 15° |
| 2026-04-26 06:16 | -29.00209 | 153.21437 | 36854 ft | 468 kts | 15° |
| 2026-04-26 06:16 | -28.97114 | 153.22519 | 36241 ft | 468 kts | 15° |
| 2026-04-26 06:17 | -28.93982 | 153.23614 | 35522 ft | 469 kts | 15° |
| 2026-04-26 06:17 | -28.90864 | 153.24704 | 34802 ft | 469 kts | 15° |
| 2026-04-26 06:17 | -28.87723 | 153.25801 | 34076 ft | 470 kts | 15° |
| 2026-04-26 06:17 | -28.84588 | 153.26897 | 33361 ft | 470 kts | 15° |
| 2026-04-26 06:18 | -28.81489 | 153.27980 | 32641 ft | 472 kts | 15° |
| 2026-04-26 06:18 | -28.78326 | 153.29083 | 31883 ft | 474 kts | 15° |
| 2026-04-26 06:18 | -28.75164 | 153.30186 | 31139 ft | 475 kts | 15° |
| 2026-04-26 06:18 | -28.72045 | 153.31273 | 30645 ft | 470 kts | 15° |
| 2026-04-26 06:19 | -28.68920 | 153.32362 | 30157 ft | 465 kts | 15° |
| 2026-04-26 06:19 | -28.65809 | 153.33446 | 29666 ft | 461 kts | 15° |
| 2026-04-26 06:19 | -28.62785 | 153.34497 | 29200 ft | 457 kts | 15° |
| 2026-04-26 06:19 | -28.59736 | 153.35556 | 28719 ft | 453 kts | 15° |
| 2026-04-26 06:20 | -28.56721 | 153.36603 | 28240 ft | 449 kts | 16° |
| 2026-04-26 06:20 | -28.53776 | 153.37625 | 27764 ft | 445 kts | 16° |
| 2026-04-26 06:20 | -28.50810 | 153.38654 | 27284 ft | 441 kts | 16° |
| 2026-04-26 06:20 | -28.47909 | 153.39659 | 26811 ft | 438 kts | 16° |
| 2026-04-26 06:21 | -28.44996 | 153.40669 | 26332 ft | 434 kts | 17° |
| 2026-04-26 06:21 | -28.42122 | 153.41664 | 25857 ft | 431 kts | 17° |
| 2026-04-26 06:21 | -28.39255 | 153.42658 | 25380 ft | 427 kts | 17° |
| 2026-04-26 06:21 | -28.36444 | 153.43631 | 24918 ft | 424 kts | 17° |
| 2026-04-26 06:22 | -28.33641 | 153.44600 | 24443 ft | 421 kts | 17° |
| 2026-04-26 06:22 | -28.30849 | 153.45566 | 23969 ft | 418 kts | 17° |
| 2026-04-26 06:22 | -28.28072 | 153.46526 | 23490 ft | 414 kts | 17° |
| 2026-04-26 06:22 | -28.25311 | 153.47479 | 23013 ft | 411 kts | 17° |
| 2026-04-26 06:23 | -28.22611 | 153.48410 | 22547 ft | 408 kts | 18° |
| 2026-04-26 06:23 | -28.19884 | 153.49347 | 22074 ft | 404 kts | 17° |
| 2026-04-26 06:23 | -28.17145 | 153.49933 | 21601 ft | 402 kts | 5° |
| 2026-04-26 06:23 | -28.14371 | 153.49901 | 21124 ft | 399 kts | 354° |
| 2026-04-26 06:24 | -28.11616 | 153.49403 | 20659 ft | 396 kts | 350° |
| 2026-04-26 06:24 | -28.08948 | 153.48827 | 20208 ft | 393 kts | 349° |
| 2026-04-26 06:24 | -28.06260 | 153.48238 | 19752 ft | 390 kts | 350° |
| 2026-04-26 06:24 | -28.03599 | 153.47662 | 19295 ft | 387 kts | 350° |
| 2026-04-26 06:25 | -28.00959 | 153.47102 | 18824 ft | 384 kts | 351° |
| 2026-04-26 06:25 | -27.98322 | 153.46552 | 18370 ft | 381 kts | 351° |
| 2026-04-26 06:25 | -27.95754 | 153.46017 | 17919 ft | 379 kts | 351° |
| 2026-04-26 06:25 | -27.93162 | 153.45480 | 17458 ft | 376 kts | 351° |
| 2026-04-26 06:26 | -27.90591 | 153.44949 | 16998 ft | 373 kts | 351° |
| 2026-04-26 06:26 | -27.88048 | 153.44424 | 16535 ft | 370 kts | 351° |
| 2026-04-26 06:26 | -27.85527 | 153.43904 | 16084 ft | 367 kts | 351° |
| 2026-04-26 06:26 | -27.83013 | 153.43384 | 15626 ft | 365 kts | 351° |
| 2026-04-26 06:27 | -27.80516 | 153.42868 | 15165 ft | 362 kts | 351° |
| 2026-04-26 06:27 | -27.78033 | 153.42357 | 14716 ft | 360 kts | 352° |
| 2026-04-26 06:27 | -27.75577 | 153.41850 | 14267 ft | 358 kts | 352° |
| 2026-04-26 06:27 | -27.73128 | 153.41345 | 13817 ft | 355 kts | 352° |
| 2026-04-26 06:28 | -27.70713 | 153.40848 | 13374 ft | 353 kts | 352° |
| 2026-04-26 06:28 | -27.68310 | 153.40353 | 12936 ft | 351 kts | 352° |
| 2026-04-26 06:28 | -27.65907 | 153.39867 | 12494 ft | 348 kts | 353° |
| 2026-04-26 06:28 | -27.63506 | 153.39565 | 12045 ft | 344 kts | 359° |
| 2026-04-26 06:29 | -27.61133 | 153.39539 | 11935 ft | 336 kts | 4° |
| 2026-04-26 06:29 | -27.58789 | 153.39636 | 11958 ft | 338 kts | 5° |
| 2026-04-26 06:29 | -27.56422 | 153.39754 | 11977 ft | 339 kts | 5° |
| 2026-04-26 06:29 | -27.54074 | 153.39870 | 11992 ft | 339 kts | 5° |
| 2026-04-26 06:30 | -27.51716 | 153.39984 | 11724 ft | 341 kts | 5° |
| 2026-04-26 06:30 | -27.49350 | 153.40094 | 11270 ft | 339 kts | 5° |
| 2026-04-26 06:30 | -27.46980 | 153.40202 | 10820 ft | 337 kts | 5° |
| 2026-04-26 06:30 | -27.44659 | 153.40308 | 10398 ft | 334 kts | 5° |
| 2026-04-26 06:31 | -27.42360 | 153.40411 | 10130 ft | 325 kts | 6° |
| 2026-04-26 06:31 | -27.40135 | 153.40511 | 9994 ft | 312 kts | 6° |
| 2026-04-26 06:31 | -27.38000 | 153.40607 | 9758 ft | 304 kts | 6° |
| 2026-04-26 06:31 | -27.35900 | 153.40704 | 9330 ft | 302 kts | 6° |
| 2026-04-26 06:32 | -27.33809 | 153.40801 | 9039 ft | 295 kts | 6° |
| 2026-04-26 06:32 | -27.31803 | 153.40891 | 8813 ft | 286 kts | 6° |
| 2026-04-26 06:32 | -27.29814 | 153.40981 | 8440 ft | 279 kts | 6° |
| 2026-04-26 06:32 | -27.27895 | 153.41066 | 8079 ft | 271 kts | 7° |
| 2026-04-26 06:33 | -27.26047 | 153.41151 | 7770 ft | 264 kts | 7° |
| 2026-04-26 06:33 | -27.24223 | 153.41235 | 7484 ft | 258 kts | 7° |
| 2026-04-26 06:33 | -27.22456 | 153.41316 | 7208 ft | 254 kts | 7° |
| 2026-04-26 06:33 | -27.20687 | 153.41368 | 6927 ft | 251 kts | 1° |
| 2026-04-26 06:34 | -27.18996 | 153.40881 | 6627 ft | 256 kts | 337° |
| 2026-04-26 06:34 | -27.17532 | 153.39746 | 6327 ft | 258 kts | 323° |
| 2026-04-26 06:34 | -27.16154 | 153.38419 | 5983 ft | 259 kts | 321° |
| 2026-04-26 06:34 | -27.14824 | 153.37111 | 5732 ft | 254 kts | 322° |
| 2026-04-26 06:35 | -27.13529 | 153.35776 | 5492 ft | 251 kts | 311° |
| 2026-04-26 06:35 | -27.12836 | 153.34024 | 5254 ft | 247 kts | 274° |
| 2026-04-26 06:35 | -27.13088 | 153.32136 | 5000 ft | 242 kts | 243° |
| 2026-04-26 06:35 | -27.13839 | 153.30461 | 4752 ft | 240 kts | 238° |
| 2026-04-26 06:36 | -27.14606 | 153.28838 | 4562 ft | 233 kts | 238° |
| 2026-04-26 06:36 | -27.15344 | 153.27226 | 4393 ft | 225 kts | 236° |
| 2026-04-26 06:36 | -27.16247 | 153.25900 | 4374 ft | 202 kts | 218° |
| 2026-04-26 06:36 | -27.17331 | 153.24957 | 4267 ft | 196 kts | 206° |
| 2026-04-26 06:37 | -27.18518 | 153.24211 | 4020 ft | 192 kts | 201° |
| 2026-04-26 06:37 | -27.19707 | 153.23549 | 3786 ft | 191 kts | 200° |
| 2026-04-26 06:37 | -27.20890 | 153.22896 | 3551 ft | 190 kts | 200° |
| 2026-04-26 06:37 | -27.22082 | 153.22231 | 3318 ft | 189 kts | 200° |
| 2026-04-26 06:38 | -27.23240 | 153.21573 | 3074 ft | 186 kts | 200° |
| 2026-04-26 06:38 | -27.24377 | 153.20920 | 2822 ft | 179 kts | 200° |
| 2026-04-26 06:38 | -27.25475 | 153.20288 | 2580 ft | 176 kts | 200° |
| 2026-04-26 06:38 | -27.26567 | 153.19663 | 2384 ft | 176 kts | 200° |
| 2026-04-26 06:39 | -27.27644 | 153.19046 | 2146 ft | 175 kts | 200° |
| 2026-04-26 06:39 | -27.28735 | 153.18420 | 1895 ft | 170 kts | 200° |
| 2026-04-26 06:39 | -27.29754 | 153.17833 | 1655 ft | 157 kts | 200° |
| 2026-04-26 06:39 | -27.30680 | 153.17300 | 1431 ft | 142 kts | 200° |
| 2026-04-26 06:40 | -27.31549 | 153.16805 | 1257 ft | 138 kts | 200° |
| 2026-04-26 06:40 | -27.32406 | 153.16319 | 1101 ft | 138 kts | 200° |
| 2026-04-26 06:40 | -27.33271 | 153.15823 | 933 ft | 138 kts | 202° |
| 2026-04-26 06:40 | -27.34118 | 153.15338 | 768 ft | 136 kts | 201° |
| 2026-04-26 06:41 | -27.34974 | 153.14864 | 577 ft | 136 kts | 202° |
| 2026-04-26 06:41 | -27.35823 | 153.14374 | 391 ft | 136 kts | 203° |
| 2026-04-26 06:41 | -27.36667 | 153.13888 | 229 ft | 136 kts | 203° |
| 2026-04-26 06:41 | -27.37504 | 153.13408 | 60 ft | 134 kts | 204° |
| 2026-04-26 06:42 | -27.38287 | 153.12965 | 21 ft | 108 kts | 206° |
| 2026-04-26 06:42 | -27.38778 | 153.12680 | 21 ft | 50 kts | 211° |
| 2026-04-26 06:42 | -27.38967 | 153.12514 | 21 ft | 23 kts | 231° |
| 2026-04-26 06:42 | -27.39037 | 153.12401 | 21 ft | 13 kts | 237° |
| 2026-04-26 06:43 | -27.39088 | 153.12312 | 21 ft | 12 kts | 237° |
| 2026-04-26 06:43 | -27.39131 | 153.12233 | 21 ft | 11 kts | 248° |
| 2026-04-26 06:43 | -27.39110 | 153.12158 | 21 ft | 11 kts | 326° |
| 2026-04-26 06:43 | -27.39034 | 153.12169 | 21 ft | 12 kts | 26° |
| 2026-04-26 06:44 | -27.38956 | 153.12213 | 21 ft | 12 kts | 27° |
| 2026-04-26 06:44 | -27.38883 | 153.12256 | 21 ft | 11 kts | 27° |
| 2026-04-26 06:44 | -27.38809 | 153.12297 | 21 ft | 10 kts | 26° |
| 2026-04-26 06:44 | -27.38741 | 153.12335 | 21 ft | 9 kts | 27° |
| 2026-04-26 06:45 | -27.38701 | 153.12347 | 21 ft | 5 kts | 344° |
| 2026-04-26 06:45 | -27.38676 | 153.12317 | 21 ft | 5 kts | 286° |
| 2026-04-26 06:45 | -27.38670 | 153.12282 | 21 ft | 4 kts | 288° |
| 2026-04-26 06:45 | -27.38655 | 153.12251 | 21 ft | 3 kts | 308° |
| 2026-04-26 06:46 | -27.38649 | 153.12242 | 21 ft | 0 kts | 307° |